Terminal Aerodrome Forecast
Issued by NWS Portland, ME

Home | Current Version | Previous Version | Text Only | Print | Product List | Glossary On
Versions: 1 2 3 4 5 6 7 8 9 10 11 12 13 14 15 16 17 18 19 20 21
000
FTUS41 KGYX 262126 AAA
TAFPWM
TAF AMD
KPWM 262126Z 2621/2718 04010KT P6SM SCT025 BKN060 BKN200
     FM270000 02012KT P6SM -SHSN BKN025 OVC060
     FM270300 02017G25KT 4SM -SN OVC020
     FM270600 02017G25KT 1SM -SN OVC012=

USA.gov is the U.S. government's official web portal to all federal, state and local government web resources and services.